Time;durP1;ratioP1;P1;durP2;ratioP2;P2;SDS_P1;SDS_P2;PMS_P1;PMS_P2;Temp;Humidity;BMP_temperature;BMP_pressure;BME280_temperature;BME280_humidity;BME280_pressure;Samples;Min_cycle;Max_cycle;Signal;HPM_P1;HPM_P2
2023/09/24 00:01:27;;;;;;;1.20;0.82;;;23.40;54.00;;;;;;6264290;28;20032;-66
2023/09/24 00:04:28;;;;;;;0.88;0.70;;;23.40;53.90;;;;;;6250831;28;20025;-66
2023/09/24 00:07:28;;;;;;;0.90;0.73;;;23.40;53.90;;;;;;6259190;28;20079;-66
2023/09/24 00:10:30;;;;;;;1.05;0.82;;;23.40;53.80;;;;;;6259882;28;20032;-66
2023/09/24 00:13:35;;;;;;;2.45;0.70;;;23.40;53.80;;;;;;6267330;28;20104;-66
2023/09/24 00:16:35;;;;;;;0.98;0.68;;;23.40;53.70;;;;;;6244142;28;20387;-66
2023/09/24 00:19:37;;;;;;;0.90;0.60;;;23.40;53.80;;;;;;6268636;28;20048;-66
2023/09/24 00:22:38;;;;;;;1.13;0.82;;;23.40;53.80;;;;;;6260644;28;20108;-66
2023/09/24 00:25:38;;;;;;;0.73;0.60;;;23.40;53.80;;;;;;6260200;28;20033;-65
2023/09/24 00:28:39;;;;;;;0.75;0.70;;;23.40;53.80;;;;;;6249482;28;20029;-66
2023/09/24 00:31:40;;;;;;;1.08;0.68;;;23.40;53.80;;;;;;6244972;28;20484;-66
2023/09/24 00:34:41;;;;;;;0.85;0.75;;;23.40;53.80;;;;;;6265584;28;20103;-66
2023/09/24 00:37:42;;;;;;;0.98;0.80;;;23.40;53.70;;;;;;6267617;28;20495;-65
2023/09/24 00:40:43;;;;;;;0.60;0.60;;;23.40;53.80;;;;;;6266832;28;20025;-66
2023/09/24 00:43:44;;;;;;;1.40;0.80;;;23.40;53.70;;;;;;6259684;28;20078;-66
2023/09/24 00:46:46;;;;;;;0.70;0.60;;;23.40;54.30;;;;;;6265365;28;20025;-66
2023/09/24 00:49:47;;;;;;;1.58;0.65;;;23.40;53.60;;;;;;6250934;28;20025;-66
2023/09/24 00:52:50;;;;;;;0.90;0.70;;;23.40;53.60;;;;;;6251687;28;20017;-66
2023/09/24 00:55:51;;;;;;;1.25;0.65;;;23.40;53.50;;;;;;6259097;28;20079;-66
2023/09/24 00:58:52;;;;;;;1.00;0.73;;;23.40;53.60;;;;;;6257199;28;20033;-66
2023/09/24 01:01:53;;;;;;;1.23;0.70;;;23.40;53.70;;;;;;6261994;28;20401;-66
2023/09/24 01:04:56;;;;;;;0.60;0.55;;;23.40;53.60;;;;;;6250820;28;20028;-66
2023/09/24 01:07:57;;;;;;;0.80;0.65;;;23.40;53.50;;;;;;6256803;28;20022;-66
2023/09/24 01:10:58;;;;;;;1.00;0.70;;;23.40;53.50;;;;;;6258643;28;20060;-66
2023/09/24 01:13:59;;;;;;;0.98;0.80;;;23.40;53.40;;;;;;6251682;28;20026;-65
2023/09/24 01:17:00;;;;;;;0.93;0.73;;;23.40;53.60;;;;;;6263610;28;20643;-66
2023/09/24 01:20:05;;;;;;;0.80;0.70;;;23.40;53.40;;;;;;6265096;28;20036;-66
2023/09/24 01:23:06;;;;;;;0.75;0.60;;;23.40;53.50;;;;;;6258768;28;20029;-66
2023/09/24 01:26:10;;;;;;;0.50;0.50;;;23.40;53.40;;;;;;6251650;28;20115;-66
2023/09/24 01:29:11;;;;;;;1.08;0.80;;;23.40;53.40;;;;;;6267644;28;20492;-66
2023/09/24 01:32:12;;;;;;;1.67;0.70;;;23.40;53.30;;;;;;6266118;28;20407;-66
2023/09/24 01:35:15;;;;;;;1.20;0.80;;;23.40;53.40;;;;;;6267210;28;20017;-66
2023/09/24 01:38:16;;;;;;;0.60;0.50;;;23.40;53.30;;;;;;6267875;28;20045;-66
2023/09/24 01:41:19;;;;;;;0.60;0.60;;;23.40;53.40;;;;;;6263679;28;20395;-66
2023/09/24 01:44:21;;;;;;;0.57;0.50;;;23.40;53.30;;;;;;6268302;28;20021;-66
2023/09/24 01:47:22;;;;;;;0.98;0.65;;;23.40;53.40;;;;;;6266246;28;20037;-66
2023/09/24 01:50:29;;;;;;;0.70;0.70;;;23.40;53.40;;;;;;6269634;28;20514;-66
2023/09/24 01:53:32;;;;;;;0.70;0.57;;;23.50;53.30;;;;;;6260406;28;20021;-66
2023/09/24 01:56:35;;;;;;;0.57;0.50;;;23.40;53.30;;;;;;6271110;28;20395;-66
2023/09/24 01:59:36;;;;;;;0.60;0.52;;;23.40;53.30;;;;;;6264068;28;20066;-66
2023/09/24 02:02:37;;;;;;;1.08;0.55;;;23.40;53.10;;;;;;6272563;28;20025;-64
2023/09/24 02:05:42;;;;;;;0.73;0.50;;;23.40;53.20;;;;;;6271135;28;20502;-64
2023/09/24 02:08:43;;;;;;;0.60;0.43;;;23.40;53.40;;;;;;6254733;28;20108;-65
2023/09/24 02:11:44;;;;;;;0.85;0.65;;;23.40;53.30;;;;;;6262157;28;20024;-64
2023/09/24 02:14:46;;;;;;;0.80;0.60;;;23.40;53.20;;;;;;6262916;28;20018;-65
2023/09/24 02:17:48;;;;;;;1.27;0.80;;;23.40;53.20;;;;;;6256023;28;20460;-65
2023/09/24 02:20:51;;;;;;;0.47;0.40;;;23.40;53.30;;;;;;6271727;28;20379;-64
2023/09/24 02:23:54;;;;;;;0.50;0.50;;;23.40;53.20;;;;;;6268826;28;20116;-64
2023/09/24 02:26:57;;;;;;;4.85;0.60;;;23.40;53.10;;;;;;6271500;28;20025;-64
2023/09/24 02:29:57;;;;;;;0.75;0.60;;;23.40;53.20;;;;;;6262651;28;20017;-64
2023/09/24 02:33:00;;;;;;;0.88;0.75;;;23.40;53.20;;;;;;6256436;28;20112;-64
2023/09/24 02:36:01;;;;;;;0.93;0.50;;;23.30;53.20;;;;;;6266381;28;20032;-65
2023/09/24 02:39:01;;;;;;;0.70;0.70;;;23.40;53.20;;;;;;6270109;28;20048;-64
2023/09/24 02:42:02;;;;;;;0.68;0.60;;;23.40;53.00;;;;;;6269899;28;20027;-64
2023/09/24 02:45:08;;;;;;;0.75;0.60;;;23.40;53.10;;;;;;6269778;28;20029;-64
2023/09/24 02:48:09;;;;;;;0.77;0.60;;;23.40;53.00;;;;;;6269627;28;20104;-64
2023/09/24 02:51:10;;;;;;;0.70;0.50;;;23.40;53.00;;;;;;6263065;28;20025;-65
2023/09/24 02:54:10;;;;;;;0.40;0.35;;;23.40;53.20;;;;;;6263649;28;20468;-65
2023/09/24 02:57:11;;;;;;;0.50;0.50;;;23.40;52.90;;;;;;6269441;28;20098;-65
2023/09/24 03:00:18;;;;;;;0.50;0.40;;;23.40;52.90;;;;;;6266863;28;20044;-64
2023/09/24 03:03:18;;;;;;;1.02;0.68;;;23.40;52.80;;;;;;6269377;28;20050;-64
2023/09/24 03:06:19;;;;;;;1.00;0.70;;;23.40;52.80;;;;;;6269326;28;20025;-64
2023/09/24 03:09:20;;;;;;;0.52;0.47;;;23.50;53.00;;;;;;6268991;28;20027;-64
2023/09/24 03:12:21;;;;;;;0.70;0.57;;;23.40;52.80;;;;;;6246996;28;20337;-65
2023/09/24 03:15:23;;;;;;;0.40;0.40;;;23.40;52.90;;;;;;6266821;28;20419;-64
2023/09/24 03:18:24;;;;;;;0.47;0.47;;;23.40;52.90;;;;;;6267554;28;20098;-64
2023/09/24 03:21:25;;;;;;;0.88;0.50;;;23.40;52.90;;;;;;6259528;28;20034;-65
2023/09/24 03:24:26;;;;;;;0.77;0.40;;;23.40;52.80;;;;;;6244113;28;20060;-64
2023/09/24 03:27:27;;;;;;;0.82;0.57;;;23.40;52.90;;;;;;6267596;28;20505;-64
2023/09/24 03:30:28;;;;;;;0.50;0.47;;;23.40;52.90;;;;;;6268997;28;20550;-65
2023/09/24 03:33:29;;;;;;;0.70;0.57;;;23.40;52.80;;;;;;6269218;28;20092;-65
2023/09/24 03:36:30;;;;;;;0.47;0.47;;;23.40;52.80;;;;;;6268389;28;20032;-64
2023/09/24 03:39:31;;;;;;;0.65;0.50;;;23.40;52.90;;;;;;6227992;28;1155400;-64
2023/09/24 03:42:32;;;;;;;0.52;0.50;;;23.40;52.90;;;;;;6269842;28;20025;-64
2023/09/24 03:45:33;;;;;;;0.80;0.57;;;23.40;52.80;;;;;;6269722;28;20100;-65
2023/09/24 03:48:34;;;;;;;0.63;0.47;;;23.40;52.80;;;;;;6269487;28;20021;-65
2023/09/24 03:51:34;;;;;;;0.45;0.40;;;23.40;52.70;;;;;;6267764;28;20720;-65
2023/09/24 03:54:38;;;;;;;1.45;0.60;;;23.40;52.70;;;;;;6269098;28;20418;-64
2023/09/24 03:57:39;;;;;;;0.50;0.43;;;23.40;52.80;;;;;;6269121;28;20029;-64
2023/09/24 04:00:39;;;;;;;1.05;0.60;;;23.40;52.70;;;;;;6249159;28;20571;-64
2023/09/24 04:03:40;;;;;;;0.82;0.57;;;23.40;52.70;;;;;;6268812;28;20078;-64
2023/09/24 04:06:41;;;;;;;0.40;0.40;;;23.40;52.80;;;;;;6252157;28;20032;-64
2023/09/24 04:09:43;;;;;;;0.73;0.50;;;23.40;52.70;;;;;;6243597;28;20029;-64
2023/09/24 04:12:50;;;;;;;0.35;0.35;;;23.40;52.70;;;;;;6266381;28;20025;-65
2023/09/24 04:15:52;;;;;;;0.77;0.50;;;23.40;52.70;;;;;;6261821;28;20314;-64
2023/09/24 04:18:54;;;;;;;0.55;0.50;;;23.40;52.70;;;;;;6268901;28;20047;-64
2023/09/24 04:21:54;;;;;;;0.80;0.43;;;23.40;52.70;;;;;;6258570;28;20060;-64
2023/09/24 04:24:55;;;;;;;0.40;0.40;;;23.40;52.60;;;;;;6262687;28;20029;-65
2023/09/24 04:27:56;;;;;;;0.80;0.57;;;23.40;52.60;;;;;;6260721;28;20080;-64
2023/09/24 04:30:57;;;;;;;0.63;0.52;;;23.40;52.60;;;;;;6268610;28;20021;-65
2023/09/24 04:33:57;;;;;;;0.60;0.50;;;23.40;52.60;;;;;;6266625;28;20013;-64
2023/09/24 04:36:58;;;;;;;0.50;0.43;;;23.40;52.50;;;;;;6268048;28;20108;-64
2023/09/24 04:39:59;;;;;;;0.75;0.52;;;23.40;52.70;;;;;;6268027;28;20071;-64
2023/09/24 04:43:00;;;;;;;1.10;0.40;;;23.40;52.60;;;;;;6265230;28;20041;-65
2023/09/24 04:46:04;;;;;;;1.05;0.43;;;23.40;52.50;;;;;;6262055;28;20032;-65
2023/09/24 04:49:05;;;;;;;0.52;0.50;;;23.40;52.60;;;;;;6267977;28;20078;-65
2023/09/24 04:52:06;;;;;;;0.40;0.40;;;23.40;52.60;;;;;;6259890;28;20029;-64
2023/09/24 04:55:10;;;;;;;0.50;0.50;;;23.40;52.50;;;;;;6266847;28;20025;-64
2023/09/24 04:58:11;;;;;;;0.50;0.40;;;23.40;52.50;;;;;;6259340;28;20113;-64
2023/09/24 05:01:12;;;;;;;0.40;0.40;;;23.40;52.50;;;;;;6264162;28;20022;-65
2023/09/24 05:04:13;;;;;;;0.70;0.40;;;23.40;52.50;;;;;;6263848;28;20044;-65
2023/09/24 05:07:14;;;;;;;0.45;0.38;;;23.40;52.50;;;;;;6267506;28;20032;-65
2023/09/24 05:10:14;;;;;;;0.60;0.40;;;23.20;53.70;;;;;;6252265;28;20028;-64
2023/09/24 05:13:15;;;;;;;0.60;0.45;;;23.00;54.60;;;;;;6263221;28;20366;-64
2023/09/24 05:16:16;;;;;;;0.82;0.50;;;22.80;55.30;;;;;;6259300;28;20025;-65
2023/09/24 05:19:16;;;;;;;0.43;0.38;;;22.70;55.90;;;;;;6265073;28;20394;-65
2023/09/24 05:22:17;;;;;;;0.47;0.32;;;22.60;57.20;;;;;;6267539;28;20385;-64
2023/09/24 05:25:19;;;;;;;0.38;0.38;;;22.60;56.80;;;;;;6253534;28;20036;-65
2023/09/24 05:28:20;;;;;;;0.50;0.47;;;22.50;57.20;;;;;;6264817;28;20064;-65
2023/09/24 05:31:22;;;;;;;0.55;0.30;;;22.50;57.50;;;;;;6267172;28;20029;-64
2023/09/24 05:34:23;;;;;;;0.93;0.50;;;22.50;57.80;;;;;;6267324;28;20032;-64
2023/09/24 05:37:23;;;;;;;0.73;0.50;;;22.40;57.90;;;;;;6250367;28;20053;-64
2023/09/24 05:40:24;;;;;;;0.50;0.40;;;22.40;58.20;;;;;;6265877;28;20094;-64
2023/09/24 05:43:25;;;;;;;0.50;0.45;;;22.40;58.40;;;;;;6253064;28;20033;-65
2023/09/24 05:46:26;;;;;;;0.47;0.40;;;22.40;58.50;;;;;;6258783;28;20388;-65
2023/09/24 05:49:27;;;;;;;0.68;0.50;;;22.40;58.70;;;;;;6253491;28;20479;-64
2023/09/24 05:52:28;;;;;;;0.40;0.40;;;22.30;58.80;;;;;;6258126;28;20094;-64
2023/09/24 05:55:28;;;;;;;1.13;0.45;;;22.30;58.90;;;;;;6257317;28;20365;-64
2023/09/24 05:58:29;;;;;;;0.28;0.28;;;22.30;58.90;;;;;;6266945;28;20029;-64
2023/09/24 06:01:30;;;;;;;0.35;0.35;;;22.30;59.00;;;;;;6264773;28;20394;-65
2023/09/24 06:04:31;;;;;;;0.38;0.38;;;22.30;59.20;;;;;;6250374;28;20028;-65
2023/09/24 06:07:31;;;;;;;0.50;0.50;;;22.30;59.20;;;;;;6266807;28;20733;-65
2023/09/24 06:10:42;;;;;;;0.40;0.40;;;22.30;59.30;;;;;;6264574;28;20675;-64
2023/09/24 06:13:43;;;;;;;0.35;0.35;;;22.30;59.30;;;;;;6266996;28;20013;-65
2023/09/24 06:16:43;;;;;;;0.50;0.50;;;22.30;59.60;;;;;;6266616;28;20028;-64
2023/09/24 06:19:44;;;;;;;0.60;0.45;;;22.30;59.50;;;;;;6266360;28;20036;-64
2023/09/24 06:22:52;;;;;;;0.50;0.40;;;22.20;59.60;;;;;;6266861;28;20041;-65
2023/09/24 06:25:58;;;;;;;1.17;0.40;;;22.20;59.50;;;;;;6266269;28;20013;-65
2023/09/24 06:28:59;;;;;;;1.90;0.47;;;22.30;59.60;;;;;;6266605;28;20075;-65
2023/09/24 06:31:59;;;;;;;0.85;0.50;;;22.20;59.50;;;;;;6269123;28;20029;-65
2023/09/24 06:35:00;;;;;;;0.40;0.30;;;22.20;59.60;;;;;;6271345;28;20025;-65
2023/09/24 06:38:01;;;;;;;0.60;0.50;;;22.20;59.50;;;;;;6270807;28;20053;-65
2023/09/24 06:41:03;;;;;;;0.82;0.50;;;22.20;59.70;;;;;;6270686;28;20074;-65
2023/09/24 06:44:04;;;;;;;0.30;0.30;;;22.20;59.70;;;;;;6271094;28;20098;-65
2023/09/24 06:47:05;;;;;;;0.45;0.40;;;22.20;59.70;;;;;;6268773;28;20410;-64
2023/09/24 06:50:06;;;;;;;0.73;0.50;;;22.20;59.70;;;;;;6270638;28;20017;-64
2023/09/24 06:53:07;;;;;;;0.80;0.40;;;22.20;59.70;;;;;;6267249;28;20017;-64
2023/09/24 06:56:08;;;;;;;0.40;0.40;;;22.20;59.80;;;;;;6258149;28;20513;-64
2023/09/24 06:59:09;;;;;;;0.40;0.40;;;22.20;59.90;;;;;;6270460;28;20078;-64
2023/09/24 07:02:10;;;;;;;0.50;0.50;;;22.20;60.00;;;;;;6266335;28;20492;-66
2023/09/24 07:05:11;;;;;;;0.40;0.40;;;22.20;60.00;;;;;;6265176;28;20518;-65
2023/09/24 07:08:13;;;;;;;0.35;0.35;;;22.20;59.90;;;;;;6270547;28;20021;-64
2023/09/24 07:11:20;;;;;;;1.02;0.40;;;22.20;60.30;;;;;;6251405;28;20047;-64
2023/09/24 07:14:20;;;;;;;0.30;0.22;;;22.20;60.10;;;;;;6270426;28;20027;-63
2023/09/24 07:17:21;;;;;;;0.47;0.30;;;22.20;61.30;;;;;;6270195;28;20028;-64
2023/09/24 07:20:22;;;;;;;0.50;0.50;;;22.10;60.30;;;;;;6268996;28;20126;-64
2023/09/24 07:23:23;;;;;;;0.55;0.40;;;22.10;60.30;;;;;;6269858;28;20510;-65
2023/09/24 07:26:28;;;;;;;0.65;0.50;;;22.10;60.20;;;;;;6270508;28;20025;-64
2023/09/24 07:29:30;;;;;;;0.35;0.32;;;22.10;60.20;;;;;;6270051;28;20371;-63
2023/09/24 07:32:32;;;;;;;0.50;0.40;;;22.10;60.30;;;;;;6270249;28;20083;-64
2023/09/24 07:35:34;;;;;;;0.85;0.45;;;22.10;60.30;;;;;;6270711;28;20025;-64
2023/09/24 07:38:35;;;;;;;0.70;0.32;;;22.10;60.40;;;;;;6269566;28;20053;-64
2023/09/24 07:41:36;;;;;;;0.85;0.40;;;22.10;60.40;;;;;;6269112;28;20025;-65
2023/09/24 07:44:37;;;;;;;2.78;0.50;;;22.10;60.60;;;;;;6269555;28;20037;-64
2023/09/24 07:47:38;;;;;;;0.30;0.30;;;22.10;61.40;;;;;;6269519;28;20492;-64
2023/09/24 07:50:39;;;;;;;0.57;0.55;;;22.10;60.60;;;;;;6261043;28;20391;-64
2023/09/24 07:53:39;;;;;;;0.93;0.50;;;22.10;60.60;;;;;;6269449;28;20032;-64
2023/09/24 07:56:42;;;;;;;0.43;0.43;;;22.10;60.50;;;;;;6269431;28;20028;-64
2023/09/24 07:59:43;;;;;;;0.45;0.40;;;22.10;60.60;;;;;;6268945;28;20017;-65
2023/09/24 08:02:45;;;;;;;0.50;0.40;;;22.10;60.70;;;;;;6252657;28;20537;-64
2023/09/24 08:05:46;;;;;;;0.60;0.47;;;22.10;60.60;;;;;;6269436;28;20066;-64
2023/09/24 08:08:46;;;;;;;0.70;0.60;;;22.10;60.70;;;;;;6268817;28;20371;-64
2023/09/24 08:11:47;;;;;;;1.10;0.55;;;22.10;60.70;;;;;;6268461;28;20060;-65
2023/09/24 08:14:48;;;;;;;0.70;0.40;;;22.10;60.80;;;;;;6267682;28;20021;-64
2023/09/24 08:17:49;;;;;;;0.65;0.50;;;22.10;60.80;;;;;;6261596;28;20112;-64
2023/09/24 08:20:50;;;;;;;0.30;0.30;;;22.10;61.00;;;;;;6267593;28;20055;-65
2023/09/24 08:23:50;;;;;;;0.63;0.50;;;22.10;61.00;;;;;;6253671;28;20025;-64
2023/09/24 08:26:51;;;;;;;0.60;0.60;;;22.10;61.00;;;;;;6266700;28;20029;-64
2023/09/24 08:29:55;;;;;;;0.90;0.60;;;22.10;61.00;;;;;;6251916;28;20472;-64
2023/09/24 08:32:56;;;;;;;0.40;0.30;;;22.10;61.90;;;;;;6244356;28;20037;-64
2023/09/24 08:35:56;;;;;;;0.55;0.45;;;22.00;61.10;;;;;;6268507;28;20017;-64
2023/09/24 08:38:57;;;;;;;0.80;0.60;;;22.10;61.10;;;;;;6266735;28;20396;-65
2023/09/24 08:42:01;;;;;;;0.75;0.47;;;22.10;61.20;;;;;;6268301;28;20547;-64
2023/09/24 08:45:13;;;;;;;0.60;0.50;;;22.10;61.50;;;;;;6267852;28;20272;-64
2023/09/24 08:48:15;;;;;;;1.27;0.60;;;22.10;61.40;;;;;;6268198;28;20090;-65
2023/09/24 08:51:16;;;;;;;0.60;0.40;;;22.10;61.30;;;;;;6276076;28;20434;-64
2023/09/24 08:54:17;;;;;;;1.60;0.60;;;22.10;61.40;;;;;;6264710;28;20082;-73
2023/09/24 08:57:18;;;;;;;0.93;0.57;;;22.10;61.30;;;;;;6266529;28;20025;-68
2023/09/24 09:00:19;;;;;;;0.63;0.52;;;22.10;61.40;;;;;;6256589;28;20029;-68
2023/09/24 09:03:20;;;;;;;4.72;1.10;;;22.10;61.60;;;;;;6267652;28;20028;-67
2023/09/24 09:06:32;;;;;;;8.38;0.70;;;22.10;63.10;;;;;;6256636;28;20017;-66
2023/09/24 09:09:32;;;;;;;13.73;1.60;;;22.10;62.10;;;;;;6267958;28;20032;-68
2023/09/24 09:12:33;;;;;;;5.32;1.02;;;22.10;61.80;;;;;;6266849;28;20039;-68
2023/09/24 09:15:35;;;;;;;20.33;2.05;;;22.20;62.70;;;;;;6256703;28;20100;-67
2023/09/24 09:18:35;;;;;;;22.65;3.28;;;22.10;63.00;;;;;;6266057;28;20035;-68
2023/09/24 09:21:36;;;;;;;30.05;2.22;;;22.10;63.30;;;;;;6258742;28;20029;-68
2023/09/24 09:24:37;;;;;;;32.45;2.70;;;22.20;63.50;;;;;;6261082;28;20050;-68
2023/09/24 09:27:43;;;;;;;28.85;2.38;;;22.20;64.10;;;;;;6266271;28;20546;-67
2023/09/24 09:31:07;;;;;;;29.90;3.05;;;22.10;64.20;;;;;;6249760;28;20017;-67
2023/09/24 09:34:07;;;;;;;42.30;2.75;;;22.20;64.40;;;;;;6258474;28;20021;-67
2023/09/24 09:37:20;;;;;;;25.52;3.47;;;22.20;64.50;;;;;;6255906;28;20419;-68
2023/09/24 09:40:21;;;;;;;19.70;2.97;;;22.20;64.70;;;;;;6266729;28;20036;-67
2023/09/24 09:43:27;;;;;;;29.75;2.35;;;22.10;64.90;;;;;;6265856;28;20035;-67
2023/09/24 09:46:28;;;;;;;36.67;2.60;;;22.10;65.00;;;;;;6265186;28;20066;-68
2023/09/24 09:49:33;;;;;;;30.33;2.55;;;22.10;64.80;;;;;;6266153;28;20041;-66
2023/09/24 09:52:42;;;;;;;11.52;2.03;;;22.10;64.10;;;;;;6259691;28;20655;-70
2023/09/24 09:55:46;;;;;;;35.03;4.05;;;22.20;63.80;;;;;;6257691;28;20435;-70
2023/09/24 09:58:49;;;;;;;40.00;3.20;;;22.10;62.60;;;;;;6255312;28;20036;-70
2023/09/24 10:01:50;;;;;;;38.70;3.38;;;22.10;63.30;;;;;;6248573;28;20028;-69
2023/09/24 10:04:51;;;;;;;61.53;3.65;;;22.10;64.40;;;;;;6266497;28;20025;-70
2023/09/24 10:07:53;;;;;;;43.28;3.15;;;22.10;64.50;;;;;;6269008;28;20064;-69
2023/09/24 10:10:54;;;;;;;21.83;2.50;;;22.10;64.10;;;;;;6263816;28;20032;-69
2023/09/24 10:13:55;;;;;;;15.85;2.45;;;22.10;63.90;;;;;;6269213;28;20025;-69
2023/09/24 10:16:55;;;;;;;17.38;3.15;;;22.10;63.50;;;;;;6254374;28;20030;-68
2023/09/24 10:20:00;;;;;;;22.55;2.83;;;22.00;63.50;;;;;;6271143;28;20021;-69
2023/09/24 10:23:20;;;;;;;;;;;22.00;63.30;;;;;;6265800;28;20033;-67
2023/09/24 10:26:47;;;;;;;23.45;2.20;;;22.00;63.20;;;;;;6266213;28;20023;-69
2023/09/24 10:29:53;;;;;;;6.50;1.75;;;22.00;62.20;;;;;;6263911;28;20025;-70
2023/09/24 10:32:53;;;;;;;10.10;1.92;;;21.90;61.00;;;;;;6253890;28;20036;-69
2023/09/24 10:36:24;;;;;;;10.05;2.17;;;22.00;62.30;;;;;;6263904;28;20389;-70
2023/09/24 10:39:24;;;;;;;9.10;1.90;;;22.00;61.60;;;;;;6267590;28;20044;-69
2023/09/24 10:42:26;;;;;;;19.20;2.72;;;22.00;61.60;;;;;;6269763;28;20056;-69
2023/09/24 10:45:27;;;;;;;11.93;2.30;;;22.00;60.40;;;;;;6270390;28;20037;-70
2023/09/24 10:48:28;;;;;;;15.50;1.92;;;22.00;60.20;;;;;;6271364;28;20384;-69
2023/09/24 10:51:29;;;;;;;13.25;1.67;;;22.00;60.90;;;;;;6271764;28;20024;-70
2023/09/24 10:54:30;;;;;;;14.50;1.90;;;22.00;59.70;;;;;;6270354;28;20567;-69
2023/09/24 10:57:31;;;;;;;11.00;1.70;;;22.00;59.70;;;;;;6272009;28;20391;-69
2023/09/24 11:00:34;;;;;;;8.20;2.00;;;22.00;60.00;;;;;;6270458;28;20036;-70
2023/09/24 11:03:35;;;;;;;6.70;2.00;;;22.00;60.20;;;;;;6270850;28;20491;-70
2023/09/24 11:06:36;;;;;;;5.90;1.73;;;22.00;59.70;;;;;;6254697;28;20026;-70
2023/09/24 11:09:38;;;;;;;9.38;1.55;;;22.00;60.40;;;;;;6245727;28;20492;-70
2023/09/24 11:12:56;;;;;;;7.10;1.52;;;22.00;59.60;;;;;;6270079;28;20025;-70
2023/09/24 11:15:58;;;;;;;3.95;1.15;;;22.00;59.40;;;;;;6271220;28;20104;-69
2023/09/24 11:18:59;;;;;;;5.07;1.10;;;22.00;59.30;;;;;;6267010;28;20025;-70
2023/09/24 11:21:59;;;;;;;6.38;1.50;;;22.00;59.00;;;;;;6263854;28;20025;-70
2023/09/24 11:25:14;;;;;;;3.58;1.25;;;22.00;59.20;;;;;;6268829;28;20474;-70
2023/09/24 11:28:15;;;;;;;5.85;1.20;;;22.00;59.00;;;;;;6249391;28;20095;-69
2023/09/24 11:31:26;;;;;;;8.32;1.60;;;22.00;59.00;;;;;;6246404;28;20017;-69
2023/09/24 11:34:28;;;;;;;3.60;1.10;;;22.00;58.70;;;;;;6246810;28;20101;-69
2023/09/24 11:37:29;;;;;;;2.38;1.10;;;22.00;58.90;;;;;;6267876;28;20064;-69
2023/09/24 11:40:35;;;;;;;3.72;1.13;;;22.00;59.00;;;;;;6248258;28;20090;-70
2023/09/24 11:43:37;;;;;;;1.92;0.80;;;22.00;58.70;;;;;;6270267;28;20025;-70
2023/09/24 11:46:38;;;;;;;2.80;1.38;;;22.00;58.90;;;;;;6267970;28;20047;-70
2023/09/24 11:49:39;;;;;;;4.55;1.25;;;22.00;58.80;;;;;;6261607;28;20056;-70
2023/09/24 11:52:40;;;;;;;3.70;1.30;;;22.00;59.00;;;;;;6269662;28;20025;-70
2023/09/24 11:55:41;;;;;;;4.25;1.40;;;22.00;59.00;;;;;;6249842;28;20472;-70
2023/09/24 11:58:42;;;;;;;3.55;1.30;;;22.00;59.00;;;;;;6252614;28;20108;-70
2023/09/24 12:01:43;;;;;;;3.70;1.30;;;22.00;59.30;;;;;;6260869;28;20373;-70
2023/09/24 12:04:45;;;;;;;4.47;1.30;;;22.00;59.50;;;;;;6253235;28;20614;-70
2023/09/24 12:07:49;;;;;;;2.85;0.80;;;22.00;59.30;;;;;;6262032;28;20048;-70
2023/09/24 12:10:51;;;;;;;3.10;1.20;;;22.00;59.50;;;;;;6269359;28;20025;-69
2023/09/24 12:13:53;;;;;;;2.00;1.02;;;22.00;59.70;;;;;;6270482;28;20032;-69
2023/09/24 12:16:54;;;;;;;2.47;1.02;;;21.90;59.60;;;;;;6270183;28;20064;-70
2023/09/24 12:19:54;;;;;;;3.55;1.00;;;21.90;59.80;;;;;;6268490;28;20572;-70
2023/09/24 12:22:57;;;;;;;3.17;1.00;;;21.90;59.10;;;;;;6269827;28;20025;-69
2023/09/24 12:25:58;;;;;;;3.78;1.00;;;21.90;59.00;;;;;;6269962;28;20033;-70
2023/09/24 12:28:59;;;;;;;1.67;0.95;;;22.00;58.80;;;;;;6257790;28;20492;-70
2023/09/24 12:31:59;;;;;;;4.28;0.85;;;22.00;59.00;;;;;;6250243;28;20116;-71
2023/09/24 12:35:03;;;;;;;3.70;1.10;;;22.00;58.90;;;;;;6269625;28;20099;-70
2023/09/24 12:38:04;;;;;;;4.07;0.80;;;22.00;58.90;;;;;;6261707;28;20458;-70
2023/09/24 12:41:04;;;;;;;1.40;0.80;;;21.90;59.20;;;;;;6267301;28;20033;-71
2023/09/24 12:44:05;;;;;;;1.60;0.77;;;22.00;59.40;;;;;;6257495;28;20061;-70
2023/09/24 12:47:06;;;;;;;2.38;1.08;;;21.90;59.40;;;;;;6263867;28;20444;-70
2023/09/24 12:50:09;;;;;;;2.15;0.85;;;22.00;59.50;;;;;;6268336;28;20079;-70
2023/09/24 12:53:09;;;;;;;2.72;0.75;;;22.00;59.80;;;;;;6256637;28;20057;-70
2023/09/24 12:56:12;;;;;;;2.10;0.90;;;22.00;59.90;;;;;;6267442;28;20017;-70
2023/09/24 12:59:13;;;;;;;2.30;1.00;;;21.90;59.50;;;;;;6263878;28;20053;-70
2023/09/24 13:02:14;;;;;;;1.35;0.60;;;22.00;60.00;;;;;;6252288;28;20500;-70
2023/09/24 13:05:17;;;;;;;3.22;1.05;;;22.00;60.30;;;;;;6263604;28;20054;-70
2023/09/24 13:08:18;;;;;;;2.55;0.90;;;21.90;60.60;;;;;;6259276;28;20514;-69
2023/09/24 13:11:19;;;;;;;2.05;0.90;;;21.90;60.60;;;;;;6269049;28;20021;-69
2023/09/24 13:14:20;;;;;;;1.63;0.95;;;21.90;60.80;;;;;;6269150;28;20045;-68
2023/09/24 13:17:21;;;;;;;3.67;0.80;;;21.90;61.00;;;;;;6262070;28;20395;-68
2023/09/24 13:20:21;;;;;;;2.60;0.90;;;21.90;61.00;;;;;;6242786;28;20037;-68
2023/09/24 13:23:22;;;;;;;5.25;0.98;;;21.90;61.10;;;;;;6264453;28;20071;-67
2023/09/24 13:26:23;;;;;;;2.00;0.70;;;21.90;61.10;;;;;;6254960;28;20037;-68
2023/09/24 13:29:24;;;;;;;1.45;0.77;;;21.90;61.10;;;;;;6259556;28;20457;-68
2023/09/24 13:32:25;;;;;;;1.90;0.80;;;21.90;61.20;;;;;;6250015;28;20032;-68
2023/09/24 13:35:25;;;;;;;0.93;0.63;;;21.90;61.20;;;;;;6256599;28;20029;-68
2023/09/24 13:38:26;;;;;;;1.20;0.60;;;21.90;61.30;;;;;;6253246;28;20049;-70
2023/09/24 13:41:27;;;;;;;1.30;0.60;;;21.90;61.40;;;;;;6272685;28;20020;-67
2023/09/24 13:44:28;;;;;;;2.13;0.73;;;21.90;61.40;;;;;;6255650;28;20487;-68
2023/09/24 13:47:29;;;;;;;1.60;0.75;;;21.90;61.40;;;;;;6273575;28;20064;-68
2023/09/24 13:50:29;;;;;;;0.98;0.55;;;21.90;61.40;;;;;;6274084;28;20028;-67
2023/09/24 13:53:30;;;;;;;1.60;0.82;;;21.90;61.40;;;;;;6266545;28;20476;-70
2023/09/24 13:56:31;;;;;;;1.88;0.95;;;21.90;61.60;;;;;;6263585;28;20033;-70
2023/09/24 13:59:31;;;;;;;3.67;0.70;;;21.90;61.50;;;;;;6261056;28;20652;-70
2023/09/24 14:02:32;;;;;;;1.50;0.75;;;21.90;61.60;;;;;;6272297;28;20565;-69
2023/09/24 14:05:33;;;;;;;1.75;0.88;;;21.90;61.50;;;;;;6270788;28;20039;-70
2023/09/24 14:15:13;;;;;;;1.33;0.70;;;21.90;61.60;;;;;;6267832;28;20022;-70
2023/09/24 14:18:14;;;;;;;1.92;0.70;;;21.90;61.60;;;;;;6254548;28;20025;-70
2023/09/24 14:21:16;;;;;;;0.82;0.68;;;21.90;61.70;;;;;;6258513;28;20110;-70
2023/09/24 14:24:17;;;;;;;1.08;0.63;;;21.90;61.70;;;;;;6265935;28;20505;-69
2023/09/24 14:27:17;;;;;;;1.65;0.68;;;21.90;61.80;;;;;;6252758;28;20115;-72
2023/09/24 14:30:18;;;;;;;1.08;0.68;;;21.90;61.80;;;;;;6274623;28;20081;-69
2023/09/24 14:33:19;;;;;;;1.45;0.77;;;21.90;61.60;;;;;;6258348;28;20025;-68
2023/09/24 14:36:20;;;;;;;1.30;0.52;;;21.90;62.30;;;;;;6271023;28;20736;-68
2023/09/24 14:39:21;;;;;;;5.10;1.05;;;21.90;60.60;;;;;;6272200;28;20515;-68
2023/09/24 14:42:22;;;;;;;1.83;0.82;;;21.90;58.80;;;;;;6267767;28;20021;-69
2023/09/24 14:45:23;;;;;;;3.45;1.00;;;21.90;60.80;;;;;;6285626;28;20105;-70
2023/09/24 14:48:24;;;;;;;23.88;1.10;;;21.90;60.30;;;;;;6269025;28;20697;-68
2023/09/24 14:51:25;;;;;;;39.22;1.25;;;22.10;64.50;;;;;;6263697;28;20059;-69
2023/09/24 14:54:25;;;;;;;48.33;3.00;;;22.20;63.40;;;;;;6282268;28;20048;-69
2023/09/24 14:57:26;;;;;;;46.10;2.50;;;22.10;63.20;;;;;;6266779;28;20446;-69
2023/09/24 15:00:27;;;;;;;35.00;2.40;;;22.00;62.90;;;;;;6267293;28;20036;-68
2023/09/24 15:03:28;;;;;;;98.38;4.97;;;22.10;66.40;;;;;;6273904;28;20063;-68
2023/09/24 15:06:29;;;;;;;49.70;3.42;;;22.10;67.00;;;;;;6274813;28;20033;-71
2023/09/24 15:09:29;;;;;;;46.30;4.28;;;22.30;66.50;;;;;;6275078;28;20036;-70
2023/09/24 15:12:30;;;;;;;63.28;6.70;;;22.30;62.70;;;;;;6269152;28;20024;-68
2023/09/24 15:15:31;;;;;;;46.72;3.83;;;22.20;65.50;;;;;;6272533;28;20462;-68
2023/09/24 15:18:33;;;;;;;49.55;5.15;;;22.20;64.60;;;;;;6273201;28;20454;-67
2023/09/24 15:21:34;;;;;;;38.10;5.35;;;22.20;64.80;;;;;;6274837;28;20509;-68
2023/09/24 15:24:35;;;;;;;45.08;6.78;;;22.10;64.10;;;;;;6276329;28;20100;-68
2023/09/24 15:27:35;;;;;;;43.30;6.13;;;22.10;64.40;;;;;;6273179;28;20066;-68
2023/09/24 15:30:37;;;;;;;35.60;6.47;;;22.10;64.60;;;;;;6274098;28;20665;-68
2023/09/24 15:33:38;;;;;;;38.60;5.93;;;22.10;64.90;;;;;;6264781;28;20103;-68
2023/09/24 15:36:39;;;;;;;31.02;6.15;;;22.00;64.60;;;;;;6279158;28;20016;-68
2023/09/24 15:39:39;;;;;;;37.40;6.03;;;22.00;64.50;;;;;;6266287;28;20115;-68
2023/09/24 15:42:41;;;;;;;47.90;7.13;;;22.10;62.70;;;;;;6266363;28;20116;-68
2023/09/24 15:45:46;;;;;;;36.50;7.18;;;22.20;61.00;;;;;;6270043;28;20609;-68
2023/09/24 15:48:47;;;;;;;37.70;7.20;;;22.40;60.50;;;;;;6263104;28;20528;-67
2023/09/24 15:51:51;;;;;;;29.92;6.70;;;22.50;59.60;;;;;;6267075;28;20025;-67